sensor_id;sensor_type;location;lat;lon;timestamp;pressure;altitude;pressure_sealevel;temperature;humidity
4830;BME280;2429;52.586;14.322;2022-08-30T19:35:41;102182.34;;;15.05;71.78
4830;BME280;2429;52.586;14.322;2022-08-30T19:38:16;102176.00;;;15.22;70.83
4830;BME280;2429;52.586;14.322;2022-08-30T19:40:43;102172.66;;;15.33;70.58
4830;BME280;2429;52.586;14.322;2022-08-30T19:43:11;102176.84;;;15.37;70.18
4830;BME280;2429;52.586;14.322;2022-08-30T19:45:39;102178.22;;;15.43;69.81
4830;BME280;2429;52.586;14.322;2022-08-30T19:48:07;102173.13;;;15.40;70.09
4830;BME280;2429;52.586;14.322;2022-08-30T19:50:36;102175.22;;;15.35;70.04
4830;BME280;2429;52.586;14.322;2022-08-30T19:53:04;102168.47;;;15.43;69.55
4830;BME280;2429;52.586;14.322;2022-08-30T19:55:32;102175.31;;;15.48;69.01
4830;BME280;2429;52.586;14.322;2022-08-30T19:58:03;102172.81;;;15.45;68.97
4830;BME280;2429;52.586;14.322;2022-08-30T20:00:31;102166.97;;;15.39;69.12
4830;BME280;2429;52.586;14.322;2022-08-30T20:03:02;102176.25;;;15.32;69.72
4830;BME280;2429;52.586;14.322;2022-08-30T20:05:30;102170.59;;;15.24;69.98
4830;BME280;2429;52.586;14.322;2022-08-30T20:07:58;102167.94;;;15.24;69.82
4830;BME280;2429;52.586;14.322;2022-08-30T20:10:26;102171.44;;;15.24;69.15
4830;BME280;2429;52.586;14.322;2022-08-30T20:12:53;102175.53;;;15.16;69.59
4830;BME280;2429;52.586;14.322;2022-08-30T20:15:21;102172.03;;;15.01;70.30
4830;BME280;2429;52.586;14.322;2022-08-30T20:17:48;102174.78;;;14.99;70.44
4830;BME280;2429;52.586;14.322;2022-08-30T20:20:32;102172.38;;;14.95;70.47
4830;BME280;2429;52.586;14.322;2022-08-30T20:23:02;102165.56;;;14.90;69.85
4830;BME280;2429;52.586;14.322;2022-08-30T20:25:30;102169.28;;;14.88;70.64
4830;BME280;2429;52.586;14.322;2022-08-30T20:27:57;102169.19;;;14.89;69.92
4830;BME280;2429;52.586;14.322;2022-08-30T20:30:25;102166.44;;;14.91;69.97
4830;BME280;2429;52.586;14.322;2022-08-30T20:32:53;102169.09;;;14.91;70.29
4830;BME280;2429;52.586;14.322;2022-08-30T20:35:20;102174.94;;;14.96;69.26
4830;BME280;2429;52.586;14.322;2022-08-30T20:37:49;102167.56;;;14.87;69.47
4830;BME280;2429;52.586;14.322;2022-08-30T20:40:16;102173.44;;;14.78;69.23
4830;BME280;2429;52.586;14.322;2022-08-30T20:42:45;102172.84;;;14.72;69.17
4830;BME280;2429;52.586;14.322;2022-08-30T20:45:13;102176.72;;;14.67;69.57
4830;BME280;2429;52.586;14.322;2022-08-30T20:47:41;102180.44;;;14.64;68.90
4830;BME280;2429;52.586;14.322;2022-08-30T20:50:14;102184.31;;;14.59;69.33
4830;BME280;2429;52.586;14.322;2022-08-30T20:52:41;102189.97;;;14.52;68.95
4830;BME280;2429;52.586;14.322;2022-08-30T20:55:09;102191.47;;;14.42;69.81
4830;BME280;2429;52.586;14.322;2022-08-30T20:57:37;102183.50;;;14.42;70.04
4830;BME280;2429;52.586;14.322;2022-08-30T21:00:06;102194.47;;;14.36;70.36
4830;BME280;2429;52.586;14.322;2022-08-30T21:02:36;102193.03;;;14.30;70.17
4830;BME280;2429;52.586;14.322;2022-08-30T21:05:13;102201.25;;;14.26;70.85
4830;BME280;2429;52.586;14.322;2022-08-30T21:07:42;102196.81;;;14.26;70.56
4830;BME280;2429;52.586;14.322;2022-08-30T21:10:09;102202.28;;;14.23;71.26
4830;BME280;2429;52.586;14.322;2022-08-30T21:12:37;102196.78;;;14.12;71.64
4830;BME280;2429;52.586;14.322;2022-08-30T21:15:05;102205.66;;;14.11;71.65
4830;BME280;2429;52.586;14.322;2022-08-30T21:17:53;102207.78;;;14.04;71.43
4830;BME280;2429;52.586;14.322;2022-08-30T21:20:20;102202.41;;;14.06;71.18
4830;BME280;2429;52.586;14.322;2022-08-30T21:22:47;102202.31;;;14.07;70.80
4830;BME280;2429;52.586;14.322;2022-08-30T21:25:15;102210.53;;;14.02;70.89
4830;BME280;2429;52.586;14.322;2022-08-30T21:27:42;102214.44;;;13.95;70.54
4830;BME280;2429;52.586;14.322;2022-08-30T21:30:11;102213.00;;;13.90;70.90
4830;BME280;2429;52.586;14.322;2022-08-30T21:32:38;102208.16;;;13.82;70.62
4830;BME280;2429;52.586;14.322;2022-08-30T21:35:06;102207.28;;;13.81;70.03
4830;BME280;2429;52.586;14.322;2022-08-30T21:37:52;102212.34;;;13.70;70.64
4830;BME280;2429;52.586;14.322;2022-08-30T21:40:20;102220.44;;;13.67;71.71
4830;BME280;2429;52.586;14.322;2022-08-30T21:42:47;102221.66;;;13.61;71.25
4830;BME280;2429;52.586;14.322;2022-08-30T21:45:15;102217.28;;;13.60;71.74
4830;BME280;2429;52.586;14.322;2022-08-30T21:47:42;102225.56;;;13.54;71.68
4830;BME280;2429;52.586;14.322;2022-08-30T21:50:09;102223.25;;;13.48;71.83
4830;BME280;2429;52.586;14.322;2022-08-30T21:52:38;102233.22;;;13.43;72.03
4830;BME280;2429;52.586;14.322;2022-08-30T21:55:05;102230.25;;;13.33;71.39
4830;BME280;2429;52.586;14.322;2022-08-30T21:57:32;102231.84;;;13.36;71.83
4830;BME280;2429;52.586;14.322;2022-08-30T22:00:00;102232.72;;;13.36;72.19
4830;BME280;2429;52.586;14.322;2022-08-30T22:02:28;102227.06;;;13.26;71.39
4830;BME280;2429;52.586;14.322;2022-08-30T22:04:55;102228.94;;;13.24;71.83
4830;BME280;2429;52.586;14.322;2022-08-30T22:07:22;102233.59;;;13.19;71.82
4830;BME280;2429;52.586;14.322;2022-08-30T22:09:49;102231.84;;;13.20;71.61
4830;BME280;2429;52.586;14.322;2022-08-30T22:12:17;102232.75;;;13.19;71.51
4830;BME280;2429;52.586;14.322;2022-08-30T22:14:44;102232.69;;;13.20;71.48
4830;BME280;2429;52.586;14.322;2022-08-30T22:17:12;102227.31;;;13.22;71.12
4830;BME280;2429;52.586;14.322;2022-08-30T22:19:39;102226.63;;;13.18;71.00
4830;BME280;2429;52.586;14.322;2022-08-30T22:22:06;102214.84;;;13.08;71.53
4830;BME280;2429;52.586;14.322;2022-08-30T22:24:33;102210.63;;;13.04;70.76
4830;BME280;2429;52.586;14.322;2022-08-30T22:27:01;102215.25;;;13.00;71.59
4830;BME280;2429;52.586;14.322;2022-08-30T22:29:29;102215.56;;;12.94;70.85
4830;BME280;2429;52.586;14.322;2022-08-30T22:31:56;102220.00;;;12.93;71.80
4830;BME280;2429;52.586;14.322;2022-08-30T22:34:26;102222.31;;;13.00;71.73
4830;BME280;2429;52.586;14.322;2022-08-30T22:36:53;102220.63;;;12.99;71.25
4830;BME280;2429;52.586;14.322;2022-08-30T22:39:20;102229.31;;;13.01;70.61
4830;BME280;2429;52.586;14.322;2022-08-30T22:41:47;102228.38;;;13.02;70.87
4830;BME280;2429;52.586;14.322;2022-08-30T22:44:16;102237.31;;;12.99;71.37
4830;BME280;2429;52.586;14.322;2022-08-30T22:46:43;102240.03;;;12.98;71.40
4830;BME280;2429;52.586;14.322;2022-08-30T22:49:10;102233.59;;;13.03;71.11
4830;BME280;2429;52.586;14.322;2022-08-30T22:51:39;102232.03;;;12.99;70.88
4830;BME280;2429;52.586;14.322;2022-08-30T22:54:07;102237.16;;;13.02;71.03
4830;BME280;2429;52.586;14.322;2022-08-30T22:56:34;102244.47;;;12.97;71.24
4830;BME280;2429;52.586;14.322;2022-08-30T22:59:02;102251.69;;;12.93;71.66
4830;BME280;2429;52.586;14.322;2022-08-30T23:01:38;102249.44;;;12.86;71.77
4830;BME280;2429;52.586;14.322;2022-08-30T23:04:06;102244.38;;;12.81;71.53
4830;BME280;2429;52.586;14.322;2022-08-30T23:06:34;102245.88;;;12.87;71.84
4830;BME280;2429;52.586;14.322;2022-08-30T23:09:02;102247.03;;;12.81;72.42
4830;BME280;2429;52.586;14.322;2022-08-30T23:11:30;102253.13;;;12.66;72.85
4830;BME280;2429;52.586;14.322;2022-08-30T23:13:59;102253.63;;;12.72;72.42
4830;BME280;2429;52.586;14.322;2022-08-30T23:16:26;102254.56;;;12.71;72.19
4830;BME280;2429;52.586;14.322;2022-08-30T23:18:54;102259.41;;;12.63;72.20
4830;BME280;2429;52.586;14.322;2022-08-30T23:21:23;102248.81;;;12.63;72.24
4830;BME280;2429;52.586;14.322;2022-08-30T23:23:50;102257.53;;;12.65;72.63
4830;BME280;2429;52.586;14.322;2022-08-30T23:26:36;102260.56;;;12.57;71.77
4830;BME280;2429;52.586;14.322;2022-08-30T23:29:22;102266.00;;;12.54;71.79
4830;BME280;2429;52.586;14.322;2022-08-30T23:32:09;102265.81;;;12.40;71.60
4830;BME280;2429;52.586;14.322;2022-08-30T23:34:54;102261.56;;;12.37;72.12
4830;BME280;2429;52.586;14.322;2022-08-30T23:37:41;102255.72;;;12.31;73.04
4830;BME280;2429;52.586;14.322;2022-08-30T23:40:26;102252.38;;;12.27;73.17
4830;BME280;2429;52.586;14.322;2022-08-30T23:43:12;102255.09;;;12.25;73.57
4830;BME280;2429;52.586;14.322;2022-08-30T23:45:58;102254.31;;;12.23;73.42
4830;BME280;2429;52.586;14.322;2022-08-30T23:48:48;102247.84;;;12.12;72.73
4830;BME280;2429;52.586;14.322;2022-08-30T23:51:35;102253.03;;;12.13;73.17
4830;BME280;2429;52.586;14.322;2022-08-30T23:54:22;102252.56;;;12.05;73.03
4830;BME280;2429;52.586;14.322;2022-08-30T23:57:08;102248.94;;;12.07;73.37
4830;BME280;2429;52.586;14.322;2022-08-30T23:59:54;102249.00;;;12.06;74.20
